Time;durP1;ratioP1;P1;durP2;ratioP2;P2;SDS_P1;SDS_P2;PMS_P1;PMS_P2;Temp;Humidity;BMP_temperature;BMP_pressure;BME280_temperature;BME280_humidity;BME280_pressure;Samples;Min_cycle;Max_cycle;Signal;HPM_P1;HPM_P2
2022/02/27 00:01:15;;;;;;;4.30;1.90;;;7.00;94.20;;;;;;5083980;28;20048;-84
2022/02/27 00:11:27;;;;;;;3.75;1.60;;;6.90;94.30;;;;;;4972047;28;20085;-84
2022/02/27 00:14:01;;;;;;;8.45;1.75;;;6.90;94.40;;;;;;4971531;28;20588;-85
2022/02/27 00:20:51;;;;;;;;;;;;;;;;;;;;;
2022/02/27 00:23:49;;;;;;;4.50;1.67;;;6.80;94.70;;;;;;4954217;28;20035;-83
2022/02/27 00:27:13;;;;;;;3.38;1.45;;;6.80;94.60;;;;;;5076091;28;20483;-85
2022/02/27 00:30:33;;;;;;;2.60;1.50;;;6.90;94.70;;;;;;5090296;28;20519;-83
2022/02/27 00:33:22;;;;;;;6.05;2.03;;;6.80;94.70;;;;;;5071371;28;20040;-85
2022/02/27 00:36:38;;;;;;;4.22;1.90;;;6.80;94.30;;;;;;5090214;28;20020;-83
2022/02/27 00:47:02;;;;;;;;;;;;;;;;;;;;;
2022/02/27 01:21:15;;;;;;;3.63;1.48;;;6.60;93.50;;;;;;4819742;29;20048;-83
2022/02/27 01:43:56;;;;;;;4.82;1.80;;;6.70;92.40;;;;;;4798948;29;20126;-84
2022/02/27 02:17:26;;;;;;;;;;;;;;;;;;;;;
2022/02/27 04:54:06;;;;;;;2.33;2.00;;;6.30;95.80;;;;;;4897376;29;20523;-86
2022/02/27 04:57:01;;;;;;;6.38;3.00;;;6.30;95.90;;;;;;4890903;29;20063;-87
2022/02/27 05:34:25;;;;;;;;;;;;;;;;;;;;;
2022/02/27 05:57:45;;;;;;;7.07;4.22;;;5.90;99.00;;;;;;4876718;29;20526;-83
2022/02/27 06:22:20;;;;;;;6.97;3.90;;;5.90;99.80;;;;;;4811379;29;20086;-87
2022/02/27 06:36:25;;;;;;;9.27;5.43;;;5.90;99.90;;;;;;4749254;29;20037;-86
2022/02/27 06:39:10;;;;;;;10.63;5.40;;;6.00;99.70;;;;;;4711250;30;20041;-89
2022/02/27 06:45:29;;;;;;;6.93;4.65;;;6.10;99.50;;;;;;4814909;29;20049;-86
2022/02/27 06:48:11;;;;;;;7.82;4.60;;;6.20;99.30;;;;;;4837273;29;20057;-85
2022/02/27 06:51:19;;;;;;;8.30;4.47;;;6.20;99.00;;;;;;4839399;29;20077;-87
2022/02/27 06:56:55;;;;;;;5.80;4.10;;;6.40;99.40;;;;;;4932381;28;20627;-86
2022/02/27 07:07:12;;;;;;;10.90;5.25;;;6.60;97.90;;;;;;4897989;29;20233;-87
2022/02/27 07:10:42;;;;;;;;;;;;;;;;;;;;;
2022/02/27 07:13:34;;;;;;;18.25;5.85;;;6.60;97.30;;;;;;4905952;28;20043;-86
2022/02/27 07:16:13;;;;;;;9.32;5.85;;;6.70;97.60;;;;;;4952825;28;20110;-86
2022/02/27 07:19:17;;;;;;;10.15;5.50;;;6.70;97.10;;;;;;5007950;28;20038;-88
2022/02/27 07:21:51;;;;;;;10.45;4.32;;;6.70;97.00;;;;;;4977242;28;20044;-86
2022/02/27 07:25:45;;;;;;;;;;;;;;;;;;;;;
2022/02/27 07:31:13;;;;;;;5.55;4.25;;;6.60;96.70;;;;;;4960447;28;20114;-85
2022/02/27 07:34:22;;;;;;;10.40;5.57;;;6.70;96.20;;;;;;4959316;28;20050;-86
2022/02/27 07:37:09;;;;;;;8.10;3.85;;;6.90;96.10;;;;;;4964530;28;20070;-85
2022/02/27 07:43:31;;;;;;;7.85;4.25;;;6.90;94.10;;;;;;4860548;29;20041;-82
2022/02/27 07:46:40;;;;;;;;;;;;;;;;;;;;;
2022/02/27 07:49:33;;;;;;;9.35;4.85;;;7.10;94.10;;;;;;4865135;29;20131;-86
2022/02/27 07:52:08;;;;;;;9.50;4.95;;;7.10;94.70;;;;;;4907487;29;20167;-85
2022/02/27 07:54:39;;;;;;;8.30;4.18;;;7.20;94.10;;;;;;5020127;28;20023;-83
2022/02/27 07:57:05;;;;;;;5.82;3.92;;;7.20;93.90;;;;;;5101818;28;20023;-83
2022/02/27 07:59:40;;;;;;;10.20;5.55;;;7.40;93.70;;;;;;5109447;27;20636;-85
2022/02/27 08:02:07;;;;;;;6.88;3.92;;;7.50;93.30;;;;;;5102905;28;20489;-84
2022/02/27 08:04:33;;;;;;;8.93;5.22;;;7.50;92.90;;;;;;5123464;27;20031;-84
2022/02/27 08:07:00;;;;;;;9.48;5.80;;;7.50;92.50;;;;;;5121100;27;20816;-83
2022/02/27 08:09:26;;;;;;;7.60;5.00;;;7.60;93.30;;;;;;5104188;27;20027;-84
2022/02/27 08:12:06;;;;;;;11.57;4.55;;;7.50;92.20;;;;;;5122186;27;20051;-86
2022/02/27 08:14:31;;;;;;;7.57;4.70;;;7.50;92.00;;;;;;5104596;27;20061;-80
2022/02/27 08:16:57;;;;;;;8.43;4.40;;;7.40;92.40;;;;;;5125036;27;20023;-79
2022/02/27 08:19:26;;;;;;;8.13;5.10;;;7.30;92.00;;;;;;5120644;27;20026;-84
2022/02/27 08:21:52;;;;;;;4.85;3.22;;;7.30;92.00;;;;;;5120688;27;20028;-84
2022/02/27 08:24:21;;;;;;;5.93;3.15;;;7.30;91.90;;;;;;5105479;27;20032;-88
2022/02/27 08:26:51;;;;;;;11.80;5.00;;;7.30;92.10;;;;;;5108017;27;20028;-84
2022/02/27 08:29:22;;;;;;;9.77;5.35;;;7.30;92.20;;;;;;5127713;27;20023;-84
2022/02/27 08:31:57;;;;;;;10.00;4.90;;;7.40;91.60;;;;;;5124916;27;20045;-80
2022/02/27 08:34:27;;;;;;;9.98;5.35;;;7.60;91.80;;;;;;5121006;27;20075;-80
2022/02/27 08:37:00;;;;;;;15.18;5.25;;;7.70;91.60;;;;;;5101801;27;20023;-80
2022/02/27 08:39:45;;;;;;;9.40;4.70;;;7.80;91.40;;;;;;5120451;27;20031;-81
2022/02/27 08:42:11;;;;;;;10.20;5.53;;;8.00;90.70;;;;;;5124976;27;20039;-80
2022/02/27 08:44:38;;;;;;;5.78;4.53;;;8.10;90.60;;;;;;5126333;27;20077;-80
2022/02/27 08:47:06;;;;;;;8.43;5.38;;;7.90;90.50;;;;;;5125652;27;20026;-80
2022/02/27 08:49:33;;;;;;;6.97;4.10;;;7.90;90.00;;;;;;5127687;27;20031;-80
2022/02/27 08:52:00;;;;;;;12.10;5.75;;;7.60;90.60;;;;;;5128455;27;21570;-80
2022/02/27 08:54:25;;;;;;;9.65;3.88;;;7.60;90.30;;;;;;5127756;27;20106;-79
2022/02/27 08:56:51;;;;;;;8.07;4.32;;;7.70;90.20;;;;;;5120433;27;20115;-80
2022/02/27 08:59:17;;;;;;;7.88;4.35;;;7.70;90.70;;;;;;5124538;27;20598;-80
2022/02/27 09:01:46;;;;;;;8.35;5.45;;;7.70;90.00;;;;;;5124672;27;20123;-80
2022/02/27 09:04:12;;;;;;;8.50;5.32;;;7.90;90.20;;;;;;5125699;27;20044;-80
2022/02/27 09:06:38;;;;;;;11.57;4.38;;;8.20;90.00;;;;;;5124161;27;20026;-80
2022/02/27 09:09:20;;;;;;;12.65;5.88;;;8.40;87.90;;;;;;5120183;27;20057;-79
2022/02/27 09:11:45;;;;;;;7.70;4.28;;;8.60;87.50;;;;;;5123332;27;20018;-78
2022/02/27 09:14:11;;;;;;;8.30;5.00;;;8.50;86.50;;;;;;5122306;27;20031;-78
2022/02/27 09:16:37;;;;;;;7.47;4.80;;;8.60;87.80;;;;;;5106157;28;20069;-78
2022/02/27 09:19:19;;;;;;;10.05;5.53;;;8.60;85.80;;;;;;5120756;27;20028;-79
2022/02/27 09:21:45;;;;;;;7.27;4.60;;;8.40;86.10;;;;;;5122967;27;20022;-79
2022/02/27 09:24:14;;;;;;;8.18;4.50;;;8.40;85.40;;;;;;5121358;27;20289;-79
2022/02/27 09:26:41;;;;;;;8.15;4.82;;;8.30;85.90;;;;;;5104820;28;20073;-77
2022/02/27 09:29:07;;;;;;;10.10;4.90;;;8.30;86.50;;;;;;5119510;27;20118;-79
2022/02/27 09:31:33;;;;;;;9.50;4.47;;;8.30;85.20;;;;;;5105187;28;20419;-79
2022/02/27 09:33:59;;;;;;;8.23;4.40;;;8.30;85.50;;;;;;5117822;27;20096;-81
2022/02/27 09:36:26;;;;;;;8.18;4.05;;;8.20;85.30;;;;;;5120815;27;20011;-78
2022/02/27 09:39:02;;;;;;;7.88;4.13;;;8.20;85.30;;;;;;5120030;27;20081;-78
2022/02/27 09:41:32;;;;;;;12.13;5.50;;;8.30;84.50;;;;;;5122097;27;20680;-79
2022/02/27 09:44:09;;;;;;;5.88;3.83;;;8.40;85.30;;;;;;5101075;27;20537;-80
2022/02/27 09:46:37;;;;;;;6.40;4.35;;;8.40;84.00;;;;;;5118581;27;20501;-77
2022/02/27 09:49:09;;;;;;;6.40;3.47;;;8.60;83.50;;;;;;5122158;27;20776;-78
2022/02/27 09:51:35;;;;;;;8.57;4.35;;;8.70;82.50;;;;;;5120430;27;20038;-79
2022/02/27 09:54:01;;;;;;;8.00;4.63;;;8.70;81.90;;;;;;5120553;27;20024;-78
2022/02/27 09:56:27;;;;;;;7.80;4.95;;;8.80;81.60;;;;;;5123463;27;20431;-81
2022/02/27 09:58:54;;;;;;;6.65;3.88;;;8.90;82.00;;;;;;5107843;27;20043;-77
2022/02/27 10:01:23;;;;;;;6.60;3.22;;;9.00;80.50;;;;;;5125128;27;20106;-78
2022/02/27 10:03:49;;;;;;;8.90;4.07;;;9.10;80.40;;;;;;5119386;27;20040;-77
2022/02/27 10:06:18;;;;;;;8.93;4.90;;;9.30;79.70;;;;;;5128843;27;20061;-79
2022/02/27 10:08:57;;;;;;;8.88;4.80;;;9.40;78.60;;;;;;5118907;27;20020;-79
2022/02/27 10:11:23;;;;;;;11.05;5.18;;;9.50;78.50;;;;;;5118617;27;20038;-79
2022/02/27 10:14:05;;;;;;;8.25;4.15;;;9.70;77.70;;;;;;5121153;27;20038;-78
2022/02/27 10:16:32;;;;;;;7.90;3.75;;;9.80;77.70;;;;;;5122260;27;20122;-79
2022/02/27 10:19:01;;;;;;;9.40;3.67;;;9.50;77.10;;;;;;5120106;27;20028;-79
2022/02/27 10:21:31;;;;;;;5.53;4.25;;;9.10;76.20;;;;;;5120822;27;20653;-80
2022/02/27 10:24:10;;;;;;;9.18;4.82;;;9.20;77.20;;;;;;5128166;27;20045;-81
2022/02/27 10:26:44;;;;;;;7.32;4.25;;;9.30;77.80;;;;;;5122699;27;20481;-79
2022/02/27 10:29:18;;;;;;;9.77;4.35;;;9.40;76.30;;;;;;5120447;27;20126;-80
2022/02/27 10:31:47;;;;;;;8.27;4.45;;;9.60;77.10;;;;;;5121380;27;20538;-80
2022/02/27 10:34:32;;;;;;;8.23;5.07;;;9.60;75.80;;;;;;5124270;27;20123;-79
2022/02/27 10:37:05;;;;;;;8.43;4.63;;;9.90;76.50;;;;;;5119384;27;20084;-81
2022/02/27 10:39:34;;;;;;;9.55;4.43;;;10.00;76.80;;;;;;5118978;27;20027;-80
2022/02/27 10:42:35;;;;;;;10.80;5.28;;;10.10;76.10;;;;;;5122040;27;20020;-81
2022/02/27 10:45:05;;;;;;;8.27;3.30;;;9.90;75.50;;;;;;5081200;28;20115;-78
2022/02/27 10:47:37;;;;;;;9.88;5.05;;;9.80;75.40;;;;;;5103822;27;20026;-79
2022/02/27 10:50:15;;;;;;;9.55;5.03;;;9.80;77.20;;;;;;5120241;27;20026;-80
2022/02/27 10:52:46;;;;;;;9.15;3.78;;;9.90;74.80;;;;;;5122825;27;20023;-78
2022/02/27 10:55:16;;;;;;;7.90;3.88;;;9.60;74.20;;;;;;5110445;27;20026;-78
2022/02/27 10:57:50;;;;;;;7.85;3.95;;;9.60;73.80;;;;;;5120078;27;20024;-77
2022/02/27 11:00:30;;;;;;;7.88;3.47;;;9.60;74.30;;;;;;5110999;27;20047;-77
2022/02/27 11:03:04;;;;;;;9.10;4.80;;;9.40;74.50;;;;;;5124301;27;20031;-77
2022/02/27 11:05:42;;;;;;;11.18;4.50;;;9.30;76.70;;;;;;5119022;27;20026;-79
2022/02/27 11:08:10;;;;;;;9.45;4.35;;;9.40;76.80;;;;;;5121387;27;20027;-77
2022/02/27 11:10:41;;;;;;;6.78;4.65;;;9.60;75.60;;;;;;5124950;27;20083;-79
2022/02/27 11:13:12;;;;;;;8.30;4.63;;;9.70;75.60;;;;;;5120810;27;20023;-79
2022/02/27 11:15:39;;;;;;;9.05;3.78;;;9.80;74.70;;;;;;5124341;27;20088;-80
2022/02/27 11:18:07;;;;;;;11.38;4.97;;;9.80;74.60;;;;;;5120735;27;20055;-79
2022/02/27 11:20:33;;;;;;;7.38;4.53;;;9.70;75.80;;;;;;5118773;27;20110;-80
2022/02/27 11:22:59;;;;;;;10.13;5.75;;;9.90;74.10;;;;;;5122616;27;20500;-79
2022/02/27 11:25:27;;;;;;;12.85;8.15;;;9.80;74.20;;;;;;5119395;27;20035;-80
2022/02/27 11:28:07;;;;;;;12.43;6.60;;;9.90;75.30;;;;;;5122274;27;20068;-79
2022/02/27 11:30:46;;;;;;;15.82;8.23;;;9.80;74.70;;;;;;5118597;27;20428;-81
2022/02/27 11:33:17;;;;;;;14.45;7.07;;;10.00;74.50;;;;;;5123211;27;20027;-79
2022/02/27 11:35:56;;;;;;;18.88;9.30;;;9.90;74.70;;;;;;5121376;27;20028;-80
2022/02/27 11:38:31;;;;;;;15.43;7.43;;;9.90;74.30;;;;;;5122535;27;20036;-79
2022/02/27 11:40:58;;;;;;;10.60;6.15;;;9.90;75.20;;;;;;5118583;27;20020;-82
2022/02/27 11:43:50;;;;;;;10.57;5.63;;;10.10;73.90;;;;;;5122365;27;20039;-80
2022/02/27 11:46:17;;;;;;;9.82;5.57;;;10.20;73.70;;;;;;5118237;27;20028;-80
2022/02/27 11:48:59;;;;;;;9.38;5.72;;;10.20;73.20;;;;;;5119847;28;20019;-80
2022/02/27 11:51:46;;;;;;;9.13;5.05;;;10.20;74.00;;;;;;5121377;27;20027;-80
2022/02/27 11:54:20;;;;;;;10.00;4.07;;;10.20;74.10;;;;;;5119269;27;20027;-80
2022/02/27 11:57:03;;;;;;;6.50;4.75;;;10.40;74.00;;;;;;5120996;27;20023;-79
2022/02/27 11:59:54;;;;;;;9.40;5.55;;;10.70;73.40;;;;;;5117377;28;20036;-81
2022/02/27 12:02:25;;;;;;;7.68;4.05;;;10.70;73.20;;;;;;5100234;28;20115;-81
2022/02/27 12:04:56;;;;;;;8.07;4.40;;;10.70;72.80;;;;;;5117768;27;20668;-80
2022/02/27 12:07:22;;;;;;;9.20;5.22;;;10.70;73.50;;;;;;5094229;28;20019;-80
2022/02/27 12:09:51;;;;;;;7.05;4.50;;;10.70;73.20;;;;;;5122243;27;20022;-80
2022/02/27 12:12:44;;;;;;;9.43;4.70;;;10.60;72.60;;;;;;5118205;28;20471;-79
2022/02/27 12:15:36;;;;;;;8.65;5.05;;;10.90;73.40;;;;;;5114703;27;20034;-80
2022/02/27 12:18:08;;;;;;;10.32;4.95;;;10.80;72.00;;;;;;5104279;28;20020;-80
2022/02/27 12:20:45;;;;;;;10.32;5.28;;;10.90;73.70;;;;;;5105912;28;20028;-80
2022/02/27 12:23:34;;;;;;;8.73;3.95;;;11.00;72.00;;;;;;5120977;28;20032;-81
2022/02/27 12:26:08;;;;;;;6.40;4.30;;;10.80;72.50;;;;;;5099750;28;20477;-80
2022/02/27 12:28:49;;;;;;;12.50;4.90;;;10.90;71.40;;;;;;5116115;28;20031;-80
2022/02/27 12:31:30;;;;;;;6.07;4.78;;;10.90;73.20;;;;;;5123022;28;20020;-82
2022/02/27 12:34:20;;;;;;;7.10;4.53;;;11.60;72.60;;;;;;5099114;28;20065;-81
2022/02/27 12:37:00;;;;;;;8.63;4.38;;;11.40;69.70;;;;;;5118285;28;20034;-81
2022/02/27 12:39:32;;;;;;;11.38;4.15;;;11.60;73.70;;;;;;5117860;28;20077;-81
2022/02/27 12:41:58;;;;;;;7.22;4.47;;;12.10;70.90;;;;;;5117279;28;20080;-81
2022/02/27 12:44:53;;;;;;;10.52;5.13;;;12.10;70.10;;;;;;5117571;27;20448;-81
2022/02/27 12:47:22;;;;;;;7.28;4.57;;;13.40;67.20;;;;;;5101625;28;20031;-81
2022/02/27 12:52:44;;;;;;;11.20;5.57;;;13.40;67.10;;;;;;5117005;27;20037;-81
2022/02/27 12:55:14;;;;;;;12.15;5.07;;;13.10;67.10;;;;;;5121071;27;20029;-81
2022/02/27 12:57:41;;;;;;;7.60;4.70;;;13.20;67.80;;;;;;5106494;27;20026;-82
2022/02/27 13:00:07;;;;;;;8.32;4.68;;;13.50;67.90;;;;;;5121078;27;20628;-81
2022/02/27 13:02:33;;;;;;;8.10;4.45;;;14.00;67.00;;;;;;5104473;27;20021;-81
2022/02/27 13:05:01;;;;;;;5.78;4.40;;;14.20;63.20;;;;;;5122199;27;20110;-79
2022/02/27 13:07:28;;;;;;;7.13;4.40;;;12.60;67.00;;;;;;5104311;27;20246;-81
2022/02/27 13:09:55;;;;;;;7.70;4.72;;;12.90;69.00;;;;;;5122082;27;20031;-80
2022/02/27 13:12:28;;;;;;;11.55;4.40;;;13.90;68.00;;;;;;5098762;27;20011;-82
2022/02/27 13:14:57;;;;;;;6.65;4.25;;;15.30;66.10;;;;;;5122028;27;20023;-82
2022/02/27 13:17:40;;;;;;;6.57;4.32;;;16.60;62.70;;;;;;5121946;27;20016;-81
2022/02/27 13:20:13;;;;;;;9.02;4.57;;;15.10;63.10;;;;;;5121346;27;20373;-80
2022/02/27 13:22:46;;;;;;;6.15;4.78;;;13.40;66.50;;;;;;5124309;27;20110;-80
2022/02/27 13:25:12;;;;;;;;;;;13.00;69.40;;;;;;5112437;27;20149;-80
2022/02/27 13:27:45;;;;;;;9.60;4.72;;;12.50;69.70;;;;;;5105600;27;19903;-80
2022/02/27 13:30:12;;;;;;;;;;;14.20;69.80;;;;;;5102629;27;20052;-81
2022/02/27 13:32:46;;;;;;;7.68;5.15;;;17.80;62.50;;;;;;5124068;27;19903;-81
2022/02/27 13:35:21;;;;;;;9.18;5.03;;;16.20;62.00;;;;;;5112117;27;20127;-81
2022/02/27 13:38:09;;;;;;;10.07;5.35;;;18.80;60.80;;;;;;5124404;27;20019;-81
2022/02/27 13:40:41;;;;;;;9.13;4.57;;;18.30;58.80;;;;;;5100866;28;20413;-81
2022/02/27 13:43:22;;;;;;;10.20;5.03;;;15.60;62.30;;;;;;5124168;27;20022;-81
2022/02/27 13:45:50;;;;;;;13.10;5.50;;;14.70;66.60;;;;;;5101795;28;20058;-81
2022/02/27 13:48:30;;;;;;;10.60;4.93;;;15.70;63.50;;;;;;5124060;27;20073;-80
2022/02/27 13:50:57;;;;;;;9.60;4.78;;;14.30;64.90;;;;;;5100454;28;20062;-81
2022/02/27 13:53:26;;;;;;;8.68;5.00;;;13.40;66.60;;;;;;5124034;27;20282;-81
2022/02/27 13:55:56;;;;;;;9.13;4.93;;;12.50;69.30;;;;;;5120165;27;20053;-80
2022/02/27 13:58:26;;;;;;;8.18;4.53;;;12.80;70.50;;;;;;5123831;27;20023;-81
2022/02/27 14:00:54;;;;;;;8.15;4.80;;;12.50;69.50;;;;;;5119889;27;20024;-81
2022/02/27 14:03:36;;;;;;;7.53;4.75;;;14.10;66.40;;;;;;5107936;27;20452;-81
2022/02/27 14:06:07;;;;;;;9.13;5.18;;;14.70;65.60;;;;;;5120182;27;20031;-81
2022/02/27 14:08:39;;;;;;;8.30;5.20;;;14.30;65.80;;;;;;5096143;28;20020;-81
2022/02/27 14:11:07;;;;;;;8.47;5.10;;;15.20;63.40;;;;;;5101379;28;20027;-81
2022/02/27 14:13:34;;;;;;;7.47;5.10;;;15.40;62.10;;;;;;5118729;27;20048;-81
2022/02/27 14:16:04;;;;;;;7.60;5.03;;;14.60;62.00;;;;;;5102912;28;20482;-81
2022/02/27 14:18:35;;;;;;;6.38;4.55;;;14.10;63.30;;;;;;5113543;27;20102;-81
2022/02/27 14:21:25;;;;;;;6.03;4.00;;;15.90;62.20;;;;;;5119746;27;20027;-81
2022/02/27 14:24:00;;;;;;;9.27;5.20;;;15.90;60.10;;;;;;5098602;27;20035;-81
2022/02/27 14:26:29;;;;;;;8.30;5.20;;;15.80;60.90;;;;;;5102758;27;20023;-81
2022/02/27 14:29:08;;;;;;;10.85;3.67;;;15.00;61.50;;;;;;5102289;27;20027;-80
2022/02/27 14:31:36;;;;;;;8.80;4.05;;;13.50;63.90;;;;;;5105255;28;20024;-80
2022/02/27 14:34:13;;;;;;;12.25;5.38;;;13.20;65.70;;;;;;5106215;27;20572;-80
2022/02/27 14:36:40;;;;;;;11.98;5.68;;;13.80;66.20;;;;;;5120403;27;20019;-81
2022/02/27 14:39:08;;;;;;;9.00;4.82;;;14.50;65.50;;;;;;5124471;27;20238;-80
2022/02/27 14:41:34;;;;;;;10.43;4.80;;;15.50;63.50;;;;;;5121761;27;20126;-81
2022/02/27 14:44:00;;;;;;;9.20;5.32;;;14.60;63.10;;;;;;5100917;27;20406;-81
2022/02/27 14:46:27;;;;;;;7.75;5.45;;;14.70;64.50;;;;;;5121121;27;20034;-80
2022/02/27 14:49:11;;;;;;;8.00;4.93;;;14.90;64.40;;;;;;5120324;27;20044;-80
2022/02/27 14:51:39;;;;;;;9.98;5.63;;;14.70;64.20;;;;;;5119500;27;20020;-80
2022/02/27 14:54:08;;;;;;;8.15;4.90;;;14.60;65.70;;;;;;5100574;27;20031;-80
2022/02/27 14:56:34;;;;;;;8.65;6.18;;;14.80;64.10;;;;;;5123645;27;20039;-80
2022/02/27 14:59:05;;;;;;;8.07;5.50;;;14.50;64.80;;;;;;5118450;27;20128;-80
2022/02/27 15:01:34;;;;;;;7.95;5.45;;;13.80;66.10;;;;;;5122849;27;20414;-80
2022/02/27 15:04:00;;;;;;;9.30;5.10;;;13.50;67.20;;;;;;5118472;27;20066;-81
2022/02/27 15:06:34;;;;;;;11.27;6.30;;;13.60;66.60;;;;;;5099279;28;20051;-80
2022/02/27 15:09:01;;;;;;;6.72;4.38;;;13.80;66.90;;;;;;5119106;27;20115;-81
2022/02/27 15:11:27;;;;;;;6.80;5.10;;;13.50;65.60;;;;;;5123673;27;20474;-81
2022/02/27 15:13:53;;;;;;;16.63;6.47;;;13.10;66.90;;;;;;5118386;27;20024;-81
2022/02/27 15:16:22;;;;;;;7.38;5.47;;;14.00;66.80;;;;;;5122870;27;20198;-80
2022/02/27 15:18:52;;;;;;;7.55;5.20;;;14.80;64.40;;;;;;5117463;27;20501;-81
2022/02/27 15:21:18;;;;;;;6.85;5.00;;;15.40;63.60;;;;;;5120056;27;20020;-80
2022/02/27 15:23:44;;;;;;;9.80;6.57;;;15.50;62.40;;;;;;5120166;27;20024;-81
2022/02/27 15:26:11;;;;;;;12.18;6.30;;;14.40;65.80;;;;;;5118503;27;20042;-82
2022/02/27 15:28:37;;;;;;;10.77;6.30;;;14.10;66.30;;;;;;5121009;27;20046;-81
2022/02/27 15:31:03;;;;;;;13.25;7.82;;;13.30;66.90;;;;;;5108234;27;20027;-80
2022/02/27 15:33:29;;;;;;;11.55;6.57;;;12.60;68.80;;;;;;5112471;27;20028;-77
2022/02/27 15:35:56;;;;;;;15.95;9.75;;;12.30;69.50;;;;;;5100357;28;20138;-80
2022/02/27 15:38:22;;;;;;;13.30;7.82;;;12.20;71.20;;;;;;5124936;27;20110;-78
2022/02/27 15:40:48;;;;;;;13.95;6.80;;;12.00;71.10;;;;;;5124342;27;20023;-80
2022/02/27 15:43:14;;;;;;;11.13;6.50;;;11.90;72.00;;;;;;5120243;28;20035;-79
2022/02/27 15:45:40;;;;;;;12.00;7.60;;;11.90;72.10;;;;;;5114146;27;20035;-81
2022/02/27 15:48:07;;;;;;;10.63;4.97;;;11.80;71.40;;;;;;5122068;27;20490;-81
2022/02/27 15:50:49;;;;;;;20.63;10.68;;;11.00;72.70;;;;;;5100062;28;20493;-81
2022/02/27 15:53:18;;;;;;;10.60;6.75;;;10.90;74.60;;;;;;5105504;28;20011;-80
2022/02/27 15:55:44;;;;;;;15.18;7.53;;;10.80;75.10;;;;;;5117550;27;20080;-80
2022/02/27 15:58:10;;;;;;;14.38;8.20;;;10.90;75.40;;;;;;5105813;28;20027;-79
2022/02/27 16:00:36;;;;;;;11.68;8.32;;;10.90;74.90;;;;;;5101241;28;20055;-81
2022/02/27 16:03:02;;;;;;;14.85;9.13;;;10.80;75.60;;;;;;5101861;28;20062;-81
2022/02/27 16:05:28;;;;;;;13.50;8.52;;;10.70;75.90;;;;;;5120621;28;20031;-80
2022/02/27 16:07:53;;;;;;;14.23;8.52;;;10.70;76.00;;;;;;5120928;27;20020;-81
2022/02/27 16:10:21;;;;;;;13.90;6.88;;;10.30;77.00;;;;;;5105927;28;20089;-83
2022/02/27 16:12:51;;;;;;;9.45;7.13;;;10.00;77.50;;;;;;5119395;28;20031;-82
2022/02/27 16:15:18;;;;;;;12.02;6.93;;;9.90;78.60;;;;;;5124878;27;20031;-78
2022/02/27 16:17:44;;;;;;;9.20;6.53;;;10.00;78.50;;;;;;5113263;28;20759;-82
2022/02/27 16:20:10;;;;;;;13.52;7.57;;;9.20;79.90;;;;;;5103877;28;20034;-80
2022/02/27 16:22:36;;;;;;;11.13;6.57;;;9.00;81.70;;;;;;5100917;28;20027;-80
2022/02/27 16:25:04;;;;;;;13.68;7.28;;;8.80;82.70;;;;;;5099336;28;20084;-80
2022/02/27 16:27:31;;;;;;;12.32;7.22;;;8.50;83.70;;;;;;5103821;27;20027;-80
2022/02/27 16:29:58;;;;;;;14.05;7.70;;;8.40;84.60;;;;;;5125361;27;20071;-78
2022/02/27 16:32:26;;;;;;;11.95;7.72;;;8.40;85.10;;;;;;5108531;27;20032;-82
2022/02/27 16:34:52;;;;;;;11.25;6.70;;;8.20;85.60;;;;;;5122955;27;20030;-80
2022/02/27 16:37:21;;;;;;;14.45;7.22;;;8.20;86.70;;;;;;5106740;27;20072;-79
2022/02/27 16:39:47;;;;;;;14.48;7.88;;;8.00;87.10;;;;;;5118702;27;20022;-77
2022/02/27 16:42:15;;;;;;;11.02;7.70;;;8.00;87.80;;;;;;5109156;27;20023;-85
2022/02/27 16:44:41;;;;;;;13.48;7.40;;;7.90;87.90;;;;;;5108432;27;20482;-78
2022/02/27 16:47:07;;;;;;;15.30;8.25;;;7.90;88.50;;;;;;5125896;27;20020;-80
2022/02/27 16:49:34;;;;;;;16.25;8.15;;;7.80;88.70;;;;;;5127414;27;20020;-79
2022/02/27 16:52:00;;;;;;;13.18;7.57;;;7.70;89.70;;;;;;5127171;27;20089;-81
2022/02/27 16:54:26;;;;;;;12.85;7.95;;;7.70;90.10;;;;;;5122563;27;20011;-79
2022/02/27 16:56:52;;;;;;;11.35;7.93;;;7.60;90.30;;;;;;5120106;27;20062;-78
2022/02/27 16:59:20;;;;;;;9.68;6.55;;;7.60;90.50;;;;;;5121783;27;20058;-81
2022/02/27 17:01:46;;;;;;;12.60;8.02;;;7.50;90.70;;;;;;5124108;27;20050;-81
2022/02/27 17:04:11;;;;;;;11.65;7.47;;;7.50;90.90;;;;;;5122301;27;20420;-81
2022/02/27 17:06:37;;;;;;;12.55;6.63;;;7.40;91.10;;;;;;5123853;27;20110;-81
2022/02/27 17:09:09;;;;;;;14.85;8.85;;;7.40;91.50;;;;;;5121121;27;20019;-80
2022/02/27 17:11:39;;;;;;;12.77;8.15;;;7.40;91.50;;;;;;5123638;27;20102;-81
2022/02/27 17:14:05;;;;;;;15.73;9.35;;;7.40;91.90;;;;;;5122017;27;20031;-81
2022/02/27 17:16:31;;;;;;;16.23;10.13;;;7.40;92.20;;;;;;5109747;27;20027;-82
2022/02/27 17:18:56;;;;;;;12.20;7.63;;;7.30;92.10;;;;;;5129779;27;20023;-82
2022/02/27 17:21:22;;;;;;;17.90;9.32;;;7.30;92.10;;;;;;5120382;27;20039;-82
2022/02/27 17:23:48;;;;;;;14.43;8.57;;;7.30;92.50;;;;;;5126583;27;20035;-82
2022/02/27 17:26:14;;;;;;;16.23;9.27;;;7.20;92.60;;;;;;5120830;27;20176;-82
2022/02/27 17:28:40;;;;;;;15.98;8.30;;;7.20;92.80;;;;;;5123806;27;20076;-83
2022/02/27 17:31:06;;;;;;;13.88;8.95;;;7.20;92.90;;;;;;5129546;27;20106;-83
2022/02/27 17:33:32;;;;;;;15.60;9.30;;;7.10;93.00;;;;;;5123746;27;20038;-83
2022/02/27 17:36:00;;;;;;;17.05;8.63;;;7.00;93.20;;;;;;5128263;27;20035;-83
2022/02/27 17:38:26;;;;;;;19.20;8.68;;;6.90;93.80;;;;;;5120967;27;20011;-82
2022/02/27 17:40:52;;;;;;;11.90;8.93;;;6.90;93.60;;;;;;5125388;27;20037;-83
2022/02/27 17:43:18;;;;;;;13.50;8.40;;;7.00;94.10;;;;;;5132878;27;20031;-83
2022/02/27 17:45:44;;;;;;;14.65;9.60;;;6.90;94.00;;;;;;5119125;27;20441;-83
2022/02/27 17:48:10;;;;;;;18.75;9.13;;;6.90;94.30;;;;;;5126162;27;20043;-83
2022/02/27 17:50:38;;;;;;;22.00;10.30;;;6.80;94.50;;;;;;5125430;27;20030;-83
2022/02/27 17:53:04;;;;;;;16.63;8.68;;;6.90;94.60;;;;;;5102090;27;20072;-83
2022/02/27 17:55:30;;;;;;;18.27;9.38;;;6.90;94.80;;;;;;5105188;28;20028;-84
2022/02/27 17:57:56;;;;;;;19.52;10.98;;;6.80;95.20;;;;;;5122749;27;20027;-82
2022/02/27 18:00:22;;;;;;;14.60;9.70;;;6.80;95.50;;;;;;5083885;28;20040;-82
2022/02/27 18:02:48;;;;;;;27.83;12.73;;;6.70;95.50;;;;;;5097736;28;20020;-82
2022/02/27 18:05:14;;;;;;;15.48;8.93;;;6.80;95.60;;;;;;5087156;28;20064;-83
2022/02/27 18:07:40;;;;;;;13.18;8.27;;;6.80;95.60;;;;;;5101524;28;20040;-84
2022/02/27 18:10:06;;;;;;;13.60;9.10;;;6.80;95.80;;;;;;5105659;28;20070;-84
2022/02/27 18:12:32;;;;;;;15.25;9.65;;;6.80;95.90;;;;;;5102441;28;20016;-83
2022/02/27 18:14:58;;;;;;;13.90;8.48;;;6.70;96.20;;;;;;5107311;28;20032;-82
2022/02/27 18:17:24;;;;;;;16.38;9.23;;;6.60;96.40;;;;;;5100670;28;20054;-84
2022/02/27 18:19:52;;;;;;;14.45;8.63;;;6.60;96.70;;;;;;5100893;28;20076;-83
2022/02/27 18:22:18;;;;;;;16.48;9.43;;;6.60;96.60;;;;;;5100697;28;20019;-84
2022/02/27 18:24:44;;;;;;;14.00;8.60;;;6.60;96.60;;;;;;5100885;28;20032;-83
2022/02/27 18:27:10;;;;;;;13.57;6.97;;;6.80;96.10;;;;;;5101676;28;20481;-84
2022/02/27 18:29:36;;;;;;;12.10;8.07;;;6.90;96.20;;;;;;5084020;28;20106;-85
2022/02/27 18:32:03;;;;;;;18.63;10.00;;;6.80;96.10;;;;;;5085657;28;20031;-84
2022/02/27 18:34:28;;;;;;;12.75;7.85;;;6.90;96.10;;;;;;5105027;28;20489;-83
2022/02/27 18:36:54;;;;;;;15.50;8.90;;;6.90;96.30;;;;;;5102890;28;20114;-83
2022/02/27 18:39:26;;;;;;;10.55;7.90;;;6.80;96.10;;;;;;5102705;28;20467;-84
2022/02/27 18:41:52;;;;;;;17.58;9.93;;;6.80;96.40;;;;;;5085023;28;20466;-84
2022/02/27 18:44:20;;;;;;;19.88;9.35;;;6.80;96.60;;;;;;5078843;28;20035;-84
2022/02/27 18:46:46;;;;;;;11.63;7.95;;;6.70;96.60;;;;;;5098302;28;20024;-84
2022/02/27 18:49:12;;;;;;;19.13;7.93;;;6.70;97.00;;;;;;5099502;28;20027;-84
2022/02/27 18:51:38;;;;;;;16.13;9.23;;;6.70;97.30;;;;;;5085383;28;20032;-83
2022/02/27 18:54:03;;;;;;;19.63;10.07;;;6.60;97.60;;;;;;5103828;28;20020;-84
2022/02/27 18:56:34;;;;;;;15.95;9.27;;;6.60;97.90;;;;;;5083557;28;20039;-84
2022/02/27 18:59:00;;;;;;;16.45;9.85;;;6.50;98.10;;;;;;5107450;27;20529;-84
2022/02/27 19:01:26;;;;;;;16.98;10.77;;;6.50;98.50;;;;;;5102986;27;20059;-82
2022/02/27 19:03:51;;;;;;;18.30;10.48;;;6.50;98.60;;;;;;5120717;27;20060;-81
2022/02/27 19:06:17;;;;;;;13.77;8.68;;;6.50;98.80;;;;;;5125395;27;20106;-83
2022/02/27 19:08:43;;;;;;;15.68;9.88;;;6.50;98.50;;;;;;5118445;27;20553;-83
2022/02/27 19:11:09;;;;;;;18.77;10.35;;;6.50;98.80;;;;;;5100619;28;20038;-83
2022/02/27 19:13:37;;;;;;;17.65;10.48;;;6.40;98.80;;;;;;5122021;27;20028;-83
2022/02/27 19:16:04;;;;;;;16.27;9.93;;;6.50;98.90;;;;;;5118796;27;20416;-83
2022/02/27 19:18:30;;;;;;;14.00;9.48;;;6.50;98.70;;;;;;5112969;27;20381;-84
2022/02/27 19:20:55;;;;;;;15.85;10.55;;;6.50;98.70;;;;;;5118559;27;20026;-84
2022/02/27 19:23:24;;;;;;;31.95;10.30;;;6.40;99.30;;;;;;5124660;27;20542;-84
2022/02/27 19:25:50;;;;;;;15.77;9.10;;;6.40;99.50;;;;;;5106349;27;20031;-83
2022/02/27 19:28:16;;;;;;;15.45;8.90;;;6.30;99.60;;;;;;5119493;27;20030;-84
2022/02/27 19:30:45;;;;;;;18.65;9.15;;;6.30;99.70;;;;;;5103194;27;20110;-81